sensor_id;sensor_type;location;lat;lon;timestamp;pressure;altitude;pressure_sealevel;temperature;humidity
72116;BME280;59991;52.140;5.428;2022-12-20T00:00:29;101327.72;;;7.88;96.99
72116;BME280;59991;52.140;5.428;2022-12-20T00:01:00;101321.84;;;7.86;97.30
72116;BME280;59991;52.140;5.428;2022-12-20T00:01:36;101325.78;;;7.88;96.97
72116;BME280;59991;52.140;5.428;2022-12-20T00:02:08;101321.50;;;7.87;97.21
72116;BME280;59991;52.140;5.428;2022-12-20T00:02:39;101319.56;;;7.88;96.42
72116;BME280;59991;52.140;5.428;2022-12-20T00:03:11;101322.28;;;7.88;96.88
72116;BME280;59991;52.140;5.428;2022-12-20T00:03:43;101319.56;;;7.88;96.85
72116;BME280;59991;52.140;5.428;2022-12-20T00:04:15;101311.78;;;7.86;96.72
72116;BME280;59991;52.140;5.428;2022-12-20T00:04:46;101311.44;;;7.88;96.66
72116;BME280;59991;52.140;5.428;2022-12-20T00:05:18;101313.34;;;7.87;97.24
72116;BME280;59991;52.140;5.428;2022-12-20T00:05:49;101310.25;;;7.89;96.48
72116;BME280;59991;52.140;5.428;2022-12-20T00:06:21;101311.06;;;7.89;97.05
72116;BME280;59991;52.140;5.428;2022-12-20T00:06:53;101319.19;;;7.89;96.72
72116;BME280;59991;52.140;5.428;2022-12-20T00:07:24;101310.25;;;7.89;96.68
72116;BME280;59991;52.140;5.428;2022-12-20T00:07:56;101307.56;;;7.89;96.88
72116;BME280;59991;52.140;5.428;2022-12-20T00:08:27;101318.06;;;7.90;96.53
72116;BME280;59991;52.140;5.428;2022-12-20T00:09:00;101311.44;;;7.88;96.83
72116;BME280;59991;52.140;5.428;2022-12-20T00:09:33;101304.84;;;7.89;96.86
72116;BME280;59991;52.140;5.428;2022-12-20T00:10:05;101309.13;;;7.90;96.17
72116;BME280;59991;52.140;5.428;2022-12-20T00:10:40;101312.28;;;7.92;96.60
72116;BME280;59991;52.140;5.428;2022-12-20T00:11:13;101315.00;;;7.92;96.19
72116;BME280;59991;52.140;5.428;2022-12-20T00:11:44;101311.50;;;7.91;96.71
72116;BME280;59991;52.140;5.428;2022-12-20T00:12:16;101313.88;;;7.93;96.25
72116;BME280;59991;52.140;5.428;2022-12-20T00:12:47;101306.50;;;7.93;96.12
72116;BME280;59991;52.140;5.428;2022-12-20T00:13:19;101313.53;;;7.94;96.29
72116;BME280;59991;52.140;5.428;2022-12-20T00:13:50;101313.19;;;7.96;96.43
72116;BME280;59991;52.140;5.428;2022-12-20T00:14:22;101306.97;;;7.95;96.70
72116;BME280;59991;52.140;5.428;2022-12-20T00:14:53;101312.72;;;7.94;95.90
72116;BME280;59991;52.140;5.428;2022-12-20T00:15:25;101309.31;;;7.97;95.77
72116;BME280;59991;52.140;5.428;2022-12-20T00:16:11;101314.75;;;7.97;95.90
72116;BME280;59991;52.140;5.428;2022-12-20T00:16:42;101316.34;;;7.98;96.44
72116;BME280;59991;52.140;5.428;2022-12-20T00:17:14;101323.34;;;7.99;96.18
72116;BME280;59991;52.140;5.428;2022-12-20T00:17:45;101311.25;;;7.96;95.99
72116;BME280;59991;52.140;5.428;2022-12-20T00:18:17;101311.69;;;7.98;96.12
72116;BME280;59991;52.140;5.428;2022-12-20T00:18:53;101316.78;;;8.00;96.13
72116;BME280;59991;52.140;5.428;2022-12-20T00:19:24;101315.22;;;7.99;96.35
72116;BME280;59991;52.140;5.428;2022-12-20T00:19:56;101322.22;;;8.00;95.85
72116;BME280;59991;52.140;5.428;2022-12-20T00:20:27;101310.56;;;8.00;95.73
72116;BME280;59991;52.140;5.428;2022-12-20T00:21:00;101319.16;;;8.02;95.97
72116;BME280;59991;52.140;5.428;2022-12-20T00:21:33;101322.66;;;8.02;96.37
72116;BME280;59991;52.140;5.428;2022-12-20T00:22:05;101316.44;;;8.02;95.81
72116;BME280;59991;52.140;5.428;2022-12-20T00:22:37;101318.38;;;8.01;95.80
72116;BME280;59991;52.140;5.428;2022-12-20T00:23:08;101333.97;;;8.04;95.95
72116;BME280;59991;52.140;5.428;2022-12-20T00:23:40;101326.16;;;8.03;95.93
72116;BME280;59991;52.140;5.428;2022-12-20T00:24:12;101326.97;;;8.03;96.05
72116;BME280;59991;52.140;5.428;2022-12-20T00:24:44;101321.53;;;8.03;96.02
72116;BME280;59991;52.140;5.428;2022-12-20T00:25:15;101318.47;;;8.05;95.46
72116;BME280;59991;52.140;5.428;2022-12-20T00:25:47;101314.16;;;8.04;95.79
72116;BME280;59991;52.140;5.428;2022-12-20T00:26:21;101319.25;;;8.05;95.81
72116;BME280;59991;52.140;5.428;2022-12-20T00:26:53;101322.31;;;8.04;95.51
72116;BME280;59991;52.140;5.428;2022-12-20T00:27:24;101321.19;;;8.05;95.61
72116;BME280;59991;52.140;5.428;2022-12-20T00:27:55;101319.59;;;8.04;95.73
72116;BME280;59991;52.140;5.428;2022-12-20T00:28:27;101320.38;;;8.04;95.69
72116;BME280;59991;52.140;5.428;2022-12-20T00:28:59;101325.13;;;8.07;95.88
72116;BME280;59991;52.140;5.428;2022-12-20T00:29:31;101314.97;;;8.04;95.77
72116;BME280;59991;52.140;5.428;2022-12-20T00:30:03;101326.69;;;8.08;95.74
72116;BME280;59991;52.140;5.428;2022-12-20T00:30:35;101311.56;;;8.07;95.33
72116;BME280;59991;52.140;5.428;2022-12-20T00:31:07;101317.41;;;8.09;95.51
72116;BME280;59991;52.140;5.428;2022-12-20T00:31:39;101312.75;;;8.10;95.56
72116;BME280;59991;52.140;5.428;2022-12-20T00:32:10;101302.69;;;8.10;95.72
72116;BME280;59991;52.140;5.428;2022-12-20T00:32:42;101299.63;;;8.12;95.65
72116;BME280;59991;52.140;5.428;2022-12-20T00:33:14;101308.13;;;8.10;94.83
72116;BME280;59991;52.140;5.428;2022-12-20T00:33:47;101298.03;;;8.11;95.45
72116;BME280;59991;52.140;5.428;2022-12-20T00:34:18;101298.75;;;8.08;95.00
72116;BME280;59991;52.140;5.428;2022-12-20T00:34:51;101303.47;;;8.11;94.79
72116;BME280;59991;52.140;5.428;2022-12-20T00:35:22;101316.72;;;8.12;95.29
72116;BME280;59991;52.140;5.428;2022-12-20T00:35:55;101312.41;;;8.11;95.31
72116;BME280;59991;52.140;5.428;2022-12-20T00:36:29;101320.22;;;8.13;95.32
72116;BME280;59991;52.140;5.428;2022-12-20T00:37:01;101318.28;;;8.13;95.06
72116;BME280;59991;52.140;5.428;2022-12-20T00:37:33;101321.00;;;8.13;95.05
72116;BME280;59991;52.140;5.428;2022-12-20T00:38:04;101301.53;;;8.11;94.81
72116;BME280;59991;52.140;5.428;2022-12-20T00:38:35;101306.97;;;8.11;95.17
72116;BME280;59991;52.140;5.428;2022-12-20T00:39:08;101309.00;;;8.14;94.57
72116;BME280;59991;52.140;5.428;2022-12-20T00:39:40;101307.06;;;8.15;94.65
72116;BME280;59991;52.140;5.428;2022-12-20T00:40:11;101304.72;;;8.13;94.49
72116;BME280;59991;52.140;5.428;2022-12-20T00:40:43;101298.59;;;8.16;95.02
72116;BME280;59991;52.140;5.428;2022-12-20T00:41:17;101306.72;;;8.16;95.32
72116;BME280;59991;52.140;5.428;2022-12-20T00:41:49;101294.38;;;8.19;94.87
72116;BME280;59991;52.140;5.428;2022-12-20T00:42:20;101295.50;;;8.18;94.72
72116;BME280;59991;52.140;5.428;2022-12-20T00:42:51;101296.75;;;8.20;94.93
72116;BME280;59991;52.140;5.428;2022-12-20T00:43:23;101294.81;;;8.21;94.68
72116;BME280;59991;52.140;5.428;2022-12-20T00:43:54;101297.09;;;8.19;94.65
72116;BME280;59991;52.140;5.428;2022-12-20T00:44:26;101297.09;;;8.19;94.74
72116;BME280;59991;52.140;5.428;2022-12-20T00:44:58;101305.34;;;8.22;94.92
72116;BME280;59991;52.140;5.428;2022-12-20T00:45:30;101294.81;;;8.21;94.64
72116;BME280;59991;52.140;5.428;2022-12-20T00:46:01;101300.34;;;8.24;94.77
72116;BME280;59991;52.140;5.428;2022-12-20T00:46:33;101299.13;;;8.22;94.68
72116;BME280;59991;52.140;5.428;2022-12-20T00:47:05;101299.13;;;8.22;94.39
72116;BME280;59991;52.140;5.428;2022-12-20T00:47:37;101290.97;;;8.22;94.89
72116;BME280;59991;52.140;5.428;2022-12-20T00:48:08;101299.56;;;8.24;94.43
72116;BME280;59991;52.140;5.428;2022-12-20T00:48:40;101296.84;;;8.24;95.12
72116;BME280;59991;52.140;5.428;2022-12-20T00:49:12;101295.72;;;8.25;94.64
72116;BME280;59991;52.140;5.428;2022-12-20T00:49:43;101302.28;;;8.24;94.83
72116;BME280;59991;52.140;5.428;2022-12-20T00:50:14;101296.84;;;8.24;94.98
72116;BME280;59991;52.140;5.428;2022-12-20T00:50:46;101306.56;;;8.25;94.78
72116;BME280;59991;52.140;5.428;2022-12-20T00:51:20;101301.13;;;8.25;94.64
72116;BME280;59991;52.140;5.428;2022-12-20T00:51:52;101293.69;;;8.22;94.44
72116;BME280;59991;52.140;5.428;2022-12-20T00:52:23;101302.28;;;8.24;94.58
72116;BME280;59991;52.140;5.428;2022-12-20T00:52:55;101296.50;;;8.25;94.93
72116;BME280;59991;52.140;5.428;2022-12-20T00:53:27;101298.88;;;8.27;94.73
72116;BME280;59991;52.140;5.428;2022-12-20T00:53:59;101296.91;;;8.27;94.66
72116;BME280;59991;52.140;5.428;2022-12-20T00:54:30;101307.03;;;8.27;94.81
72116;BME280;59991;52.140;5.428;2022-12-20T00:55:02;101305.44;;;8.26;94.40
72116;BME280;59991;52.140;5.428;2022-12-20T00:55:33;101306.56;;;8.25;94.57
72116;BME280;59991;52.140;5.428;2022-12-20T00:56:05;101305.06;;;8.27;94.62
72116;BME280;59991;52.140;5.428;2022-12-20T00:56:38;101307.03;;;8.27;94.46
72116;BME280;59991;52.140;5.428;2022-12-20T00:57:09;101299.56;;;8.24;94.45
72116;BME280;59991;52.140;5.428;2022-12-20T00:57:41;101308.56;;;8.28;94.08
72116;BME280;59991;52.140;5.428;2022-12-20T00:58:12;101302.34;;;8.27;94.23
72116;BME280;59991;52.140;5.428;2022-12-20T00:58:44;101311.72;;;8.30;94.36
72116;BME280;59991;52.140;5.428;2022-12-20T00:59:15;101303.91;;;8.28;94.16
72116;BME280;59991;52.140;5.428;2022-12-20T00:59:47;101305.50;;;8.29;94.57
72116;BME280;59991;52.140;5.428;2022-12-20T01:00:18;101304.31;;;8.27;94.32
72116;BME280;59991;52.140;5.428;2022-12-20T01:00:50;101300.06;;;8.29;94.20
72116;BME280;59991;52.140;5.428;2022-12-20T01:01:29;101299.28;;;8.29;94.27
72116;BME280;59991;52.140;5.428;2022-12-20T01:02:02;101293.84;;;8.29;94.14
72116;BME280;59991;52.140;5.428;2022-12-20T01:02:34;101303.22;;;8.31;93.99
72116;BME280;59991;52.140;5.428;2022-12-20T01:03:06;101299.06;;;8.34;93.67
72116;BME280;59991;52.140;5.428;2022-12-20T01:03:38;101295.53;;;8.34;94.17
72116;BME280;59991;52.140;5.428;2022-12-20T01:04:09;101299.84;;;8.35;94.11
72116;BME280;59991;52.140;5.428;2022-12-20T01:04:41;101285.13;;;8.36;94.46
72116;BME280;59991;52.140;5.428;2022-12-20T01:05:12;101297.13;;;8.35;93.97
72116;BME280;59991;52.140;5.428;2022-12-20T01:06:08;101299.50;;;8.36;93.68
72116;BME280;59991;52.140;5.428;2022-12-20T01:06:40;101286.69;;;8.37;94.10
72116;BME280;59991;52.140;5.428;2022-12-20T01:07:11;101300.28;;;8.37;94.46
72116;BME280;59991;52.140;5.428;2022-12-20T01:07:43;101298.25;;;8.34;94.11
72116;BME280;59991;52.140;5.428;2022-12-20T01:08:14;101304.16;;;8.36;94.65
72116;BME280;59991;52.140;5.428;2022-12-20T01:08:46;101313.09;;;8.36;94.35
72116;BME280;59991;52.140;5.428;2022-12-20T01:09:17;101311.50;;;8.35;93.88
72116;BME280;59991;52.140;5.428;2022-12-20T01:09:49;101300.50;;;8.31;93.92
72116;BME280;59991;52.140;5.428;2022-12-20T01:10:21;101299.41;;;8.32;94.35
72116;BME280;59991;52.140;5.428;2022-12-20T01:11:08;101295.53;;;8.34;94.41
72116;BME280;59991;52.140;5.428;2022-12-20T01:11:41;101299.84;;;8.35;94.37
72116;BME280;59991;52.140;5.428;2022-12-20T01:12:12;101297.13;;;8.35;94.33
72116;BME280;59991;52.140;5.428;2022-12-20T01:12:44;101305.28;;;8.35;94.42
72116;BME280;59991;52.140;5.428;2022-12-20T01:13:15;101302.56;;;8.35;94.49
72116;BME280;59991;52.140;5.428;2022-12-20T01:13:49;101294.84;;;8.37;94.33
72116;BME280;59991;52.140;5.428;2022-12-20T01:14:21;101309.22;;;8.37;94.73
72116;BME280;59991;52.140;5.428;2022-12-20T01:14:52;101305.38;;;8.38;94.64
72116;BME280;59991;52.140;5.428;2022-12-20T01:15:24;101293.72;;;8.38;94.25
72116;BME280;59991;52.140;5.428;2022-12-20T01:15:55;101289.06;;;8.38;94.80
72116;BME280;59991;52.140;5.428;2022-12-20T01:16:30;101299.94;;;8.38;94.90
72116;BME280;59991;52.140;5.428;2022-12-20T01:17:02;101285.56;;;8.38;94.49
72116;BME280;59991;52.140;5.428;2022-12-20T01:17:33;101300.28;;;8.37;94.61
72116;BME280;59991;52.140;5.428;2022-12-20T01:18:05;101293.72;;;8.38;94.71
72116;BME280;59991;52.140;5.428;2022-12-20T01:18:36;101291.00;;;8.38;95.11
72116;BME280;59991;52.140;5.428;2022-12-20T01:19:10;101289.06;;;8.38;94.91
72116;BME280;59991;52.140;5.428;2022-12-20T01:19:43;101301.06;;;8.37;95.01
72116;BME280;59991;52.140;5.428;2022-12-20T01:20:14;101304.59;;;8.38;95.29
72116;BME280;59991;52.140;5.428;2022-12-20T01:20:46;101293.28;;;8.36;95.54
72116;BME280;59991;52.140;5.428;2022-12-20T01:21:19;101310.47;;;8.40;96.14
72116;BME280;59991;52.140;5.428;2022-12-20T01:21:51;101298.00;;;8.39;95.62
72116;BME280;59991;52.140;5.428;2022-12-20T01:22:22;101305.38;;;8.38;96.01
72116;BME280;59991;52.140;5.428;2022-12-20T01:22:54;101298.00;;;8.39;95.79
72116;BME280;59991;52.140;5.428;2022-12-20T01:23:25;101292.13;;;8.37;96.04
72116;BME280;59991;52.140;5.428;2022-12-20T01:23:57;101306.94;;;8.39;96.05
72116;BME280;59991;52.140;5.428;2022-12-20T01:24:29;101292.56;;;8.39;96.54
72116;BME280;59991;52.140;5.428;2022-12-20T01:25:01;101292.13;;;8.37;96.49
72116;BME280;59991;52.140;5.428;2022-12-20T01:25:32;101289.84;;;8.39;96.16
72116;BME280;59991;52.140;5.428;2022-12-20T01:26:05;101298.00;;;8.39;97.20
72116;BME280;59991;52.140;5.428;2022-12-20T01:26:39;101301.06;;;8.37;96.65
72116;BME280;59991;52.140;5.428;2022-12-20T01:27:11;101296.44;;;8.38;96.79
72116;BME280;59991;52.140;5.428;2022-12-20T01:27:42;101288.28;;;8.38;96.67
72116;BME280;59991;52.140;5.428;2022-12-20T01:28:13;101297.22;;;8.38;97.08
72116;BME280;59991;52.140;5.428;2022-12-20T01:28:46;101297.22;;;8.38;97.23
72116;BME280;59991;52.140;5.428;2022-12-20T01:29:18;101306.94;;;8.39;97.32
72116;BME280;59991;52.140;5.428;2022-12-20T01:29:50;101312.38;;;8.39;97.30
72116;BME280;59991;52.140;5.428;2022-12-20T01:30:21;101297.22;;;8.38;97.34
72116;BME280;59991;52.140;5.428;2022-12-20T01:30:53;101292.13;;;8.37;97.31
72116;BME280;59991;52.140;5.428;2022-12-20T01:31:25;101308.09;;;8.38;97.43
72116;BME280;59991;52.140;5.428;2022-12-20T01:32:16;101299.59;;;8.40;97.84
72116;BME280;59991;52.140;5.428;2022-12-20T01:32:47;101295.28;;;8.39;98.10
72116;BME280;59991;52.140;5.428;2022-12-20T01:33:19;101303.44;;;8.39;97.78
72116;BME280;59991;52.140;5.428;2022-12-20T01:33:50;101306.16;;;8.39;98.48
72116;BME280;59991;52.140;5.428;2022-12-20T01:34:22;101289.06;;;8.38;98.31
72116;BME280;59991;52.140;5.428;2022-12-20T01:34:54;101300.28;;;8.37;98.54
72116;BME280;59991;52.140;5.428;2022-12-20T01:35:25;101294.84;;;8.37;98.63
72116;BME280;59991;52.140;5.428;2022-12-20T01:36:05;101302.22;;;8.36;98.91
72116;BME280;59991;52.140;5.428;2022-12-20T01:36:37;101292.94;;;8.37;99.25
72116;BME280;59991;52.140;5.428;2022-12-20T01:37:09;101296.78;;;8.36;99.23
72116;BME280;59991;52.140;5.428;2022-12-20T01:37:40;101303.00;;;8.37;99.27
72116;BME280;59991;52.140;5.428;2022-12-20T01:38:12;101297.13;;;8.35;99.52
72116;BME280;59991;52.140;5.428;2022-12-20T01:38:44;101297.91;;;8.35;100.00
72116;BME280;59991;52.140;5.428;2022-12-20T01:39:16;101296.69;;;8.32;99.89
72116;BME280;59991;52.140;5.428;2022-12-20T01:39:47;101297.47;;;8.33;99.54
72116;BME280;59991;52.140;5.428;2022-12-20T01:40:19;101297.78;;;8.31;100.00
72116;BME280;59991;52.140;5.428;2022-12-20T01:40:51;101298.94;;;8.30;99.96
72116;BME280;59991;52.140;5.428;2022-12-20T01:41:23;101291.13;;;8.29;99.50
72116;BME280;59991;52.140;5.428;2022-12-20T01:41:54;101293.06;;;8.28;100.00
72116;BME280;59991;52.140;5.428;2022-12-20T01:42:26;101295.41;;;8.30;100.00
72116;BME280;59991;52.140;5.428;2022-12-20T01:42:57;101291.13;;;8.29;100.00
72116;BME280;59991;52.140;5.428;2022-12-20T01:43:50;101287.63;;;8.28;100.00
72116;BME280;59991;52.140;5.428;2022-12-20T01:44:56;101293.84;;;8.29;100.00
72116;BME280;59991;52.140;5.428;2022-12-20T01:45:29;101287.63;;;8.28;100.00
72116;BME280;59991;52.140;5.428;2022-12-20T01:46:01;101293.44;;;8.27;100.00
72116;BME280;59991;52.140;5.428;2022-12-20T01:46:34;101290.72;;;8.27;100.00
72116;BME280;59991;52.140;5.428;2022-12-20T01:47:06;101286.03;;;8.27;100.00
72116;BME280;59991;52.140;5.428;2022-12-20T01:47:38;101279.75;;;8.23;100.00
72116;BME280;59991;52.140;5.428;2022-12-20T01:48:11;101288.00;;;8.27;100.00
72116;BME280;59991;52.140;5.428;2022-12-20T01:48:57;101293.78;;;8.25;100.00
72116;BME280;59991;52.140;5.428;2022-12-20T01:49:39;101287.56;;;8.25;100.00
72116;BME280;59991;52.140;5.428;2022-12-20T01:50:11;101285.97;;;8.24;100.00
72116;BME280;59991;52.140;5.428;2022-12-20T01:50:42;101293.78;;;8.25;100.00
72116;BME280;59991;52.140;5.428;2022-12-20T01:51:14;101285.97;;;8.24;100.00
72116;BME280;59991;52.140;5.428;2022-12-20T01:51:52;101284.84;;;8.25;100.00
72116;BME280;59991;52.140;5.428;2022-12-20T01:52:38;101272.75;;;8.22;100.00
72116;BME280;59991;52.140;5.428;2022-12-20T01:53:11;101277.72;;;8.20;100.00
72116;BME280;59991;52.140;5.428;2022-12-20T01:53:42;101278.06;;;8.19;100.00
72116;BME280;59991;52.140;5.428;2022-12-20T01:54:34;101277.72;;;8.20;100.00
72116;BME280;59991;52.140;5.428;2022-12-20T01:55:23;101278.88;;;8.19;100.00
72116;BME280;59991;52.140;5.428;2022-12-20T01:55:59;101276.94;;;8.20;100.00
72116;BME280;59991;52.140;5.428;2022-12-20T01:56:33;101275.38;;;8.19;100.00
72116;BME280;59991;52.140;5.428;2022-12-20T01:57:09;101274.91;;;8.17;100.00
72116;BME280;59991;52.140;5.428;2022-12-20T01:57:44;101266.44;;;8.18;100.00
72116;BME280;59991;52.140;5.428;2022-12-20T01:58:18;101261.00;;;8.18;100.00
72116;BME280;59991;52.140;5.428;2022-12-20T01:58:51;101273.44;;;8.19;100.00
72116;BME280;59991;52.140;5.428;2022-12-20T01:59:24;101278.44;;;8.17;100.00
72116;BME280;59991;52.140;5.428;2022-12-20T01:59:57;101276.94;;;8.20;100.00
72116;BME280;59991;52.140;5.428;2022-12-20T02:00:29;101278.06;;;8.19;100.00
72116;BME280;59991;52.140;5.428;2022-12-20T02:01:00;101274.91;;;8.17;100.00
72116;BME280;59991;52.140;5.428;2022-12-20T02:01:32;101278.88;;;8.19;100.00
72116;BME280;59991;52.140;5.428;2022-12-20T02:02:07;101272.66;;;8.19;100.00
72116;BME280;59991;52.140;5.428;2022-12-20T02:02:40;101273.00;;;8.17;100.00
72116;BME280;59991;52.140;5.428;2022-12-20T02:03:14;101275.72;;;8.17;100.00
72116;BME280;59991;52.140;5.428;2022-12-20T02:03:48;101264.06;;;8.17;100.00
72116;BME280;59991;52.140;5.428;2022-12-20T02:04:20;101277.63;;;8.17;100.00
72116;BME280;59991;52.140;5.428;2022-12-20T02:04:51;101272.22;;;8.17;100.00
72116;BME280;59991;52.140;5.428;2022-12-20T02:05:23;101269.84;;;8.15;100.00
72116;BME280;59991;52.140;5.428;2022-12-20T02:05:54;101269.50;;;8.17;100.00
72116;BME280;59991;52.140;5.428;2022-12-20T02:06:26;101261.34;;;8.17;100.00
72116;BME280;59991;52.140;5.428;2022-12-20T02:06:59;101268.69;;;8.16;100.00
72116;BME280;59991;52.140;5.428;2022-12-20T02:07:33;101267.13;;;8.15;100.00
72116;BME280;59991;52.140;5.428;2022-12-20T02:08:06;101261.69;;;8.15;100.00
72116;BME280;59991;52.140;5.428;2022-12-20T02:08:39;101262.47;;;8.16;100.00
72116;BME280;59991;52.140;5.428;2022-12-20T02:09:10;101260.91;;;8.15;100.00
72116;BME280;59991;52.140;5.428;2022-12-20T02:09:42;101267.47;;;8.14;100.00
72116;BME280;59991;52.140;5.428;2022-12-20T02:10:14;101271.41;;;8.16;100.00
72116;BME280;59991;52.140;5.428;2022-12-20T02:12:10;101264.75;;;8.14;100.00
72116;BME280;59991;52.140;5.428;2022-12-20T02:12:45;101266.34;;;8.15;100.00
72116;BME280;59991;52.140;5.428;2022-12-20T02:15:38;101260.09;;;8.14;100.00
72116;BME280;59991;52.140;5.428;2022-12-20T02:16:21;101255.03;;;8.13;100.00
72116;BME280;59991;52.140;5.428;2022-12-20T02:17:07;101265.09;;;8.12;100.00
72116;BME280;59991;52.140;5.428;2022-12-20T02:18:21;101263.16;;;8.13;100.00
72116;BME280;59991;52.140;5.428;2022-12-20T02:19:08;101248.00;;;8.12;100.00
72116;BME280;59991;52.140;5.428;2022-12-20T02:21:47;101247.22;;;8.11;100.00
72116;BME280;59991;52.140;5.428;2022-12-20T02:23:21;101242.56;;;8.12;100.00
72116;BME280;59991;52.140;5.428;2022-12-20T02:24:12;101242.94;;;8.10;100.00
72116;BME280;59991;52.140;5.428;2022-12-20T02:25:12;101246.44;;;8.11;100.00
72116;BME280;59991;52.140;5.428;2022-12-20T02:28:02;101245.63;;;8.10;100.00
72116;BME280;59991;52.140;5.428;2022-12-20T02:29:38;101260.38;;;8.09;100.00
72116;BME280;59991;52.140;5.428;2022-12-20T02:30:20;101260.75;;;8.08;100.00
72116;BME280;59991;52.140;5.428;2022-12-20T02:30:52;101256.06;;;8.08;100.00
72116;BME280;59991;52.140;5.428;2022-12-20T02:31:30;101246.38;;;8.07;100.00
72116;BME280;59991;52.140;5.428;2022-12-20T02:32:19;101258.03;;;8.08;100.00
72116;BME280;59991;52.140;5.428;2022-12-20T02:33:03;101254.50;;;8.07;100.00
72116;BME280;59991;52.140;5.428;2022-12-20T02:33:39;101240.94;;;8.07;100.00
72116;BME280;59991;52.140;5.428;2022-12-20T02:34:12;101246.38;;;8.07;100.00
72116;BME280;59991;52.140;5.428;2022-12-20T02:34:44;101258.78;;;8.08;100.00
72116;BME280;59991;52.140;5.428;2022-12-20T02:35:21;101242.88;;;8.07;100.00
72116;BME280;59991;52.140;5.428;2022-12-20T02:35:53;101243.66;;;8.07;100.00
72116;BME280;59991;52.140;5.428;2022-12-20T02:36:25;101240.94;;;8.07;100.00
72116;BME280;59991;52.140;5.428;2022-12-20T02:36:56;101244.00;;;8.06;100.00
72116;BME280;59991;52.140;5.428;2022-12-20T02:37:27;101245.94;;;8.05;100.00
72116;BME280;59991;52.140;5.428;2022-12-20T02:38:03;101258.38;;;8.06;100.00
72116;BME280;59991;52.140;5.428;2022-12-20T02:38:37;101254.88;;;8.06;100.00
72116;BME280;59991;52.140;5.428;2022-12-20T02:39:11;101253.72;;;8.07;100.00
72116;BME280;59991;52.140;5.428;2022-12-20T02:39:46;101252.94;;;8.06;100.00
72116;BME280;59991;52.140;5.428;2022-12-20T02:40:24;101254.06;;;8.05;100.00
72116;BME280;59991;52.140;5.428;2022-12-20T02:41:17;101255.66;;;8.06;100.00
72116;BME280;59991;52.140;5.428;2022-12-20T02:42:00;101244.00;;;8.06;100.00
72116;BME280;59991;52.140;5.428;2022-12-20T02:42:34;101244.00;;;8.06;100.00
72116;BME280;59991;52.140;5.428;2022-12-20T02:43:07;101240.16;;;8.07;100.00
72116;BME280;59991;52.140;5.428;2022-12-20T02:44:04;101231.91;;;8.03;100.00
72116;BME280;59991;52.140;5.428;2022-12-20T02:44:59;101246.38;;;8.07;100.00
72116;BME280;59991;52.140;5.428;2022-12-20T02:45:45;101238.56;;;8.06;100.00
72116;BME280;59991;52.140;5.428;2022-12-20T02:46:18;101235.06;;;8.05;100.00
72116;BME280;59991;52.140;5.428;2022-12-20T02:46:52;101233.13;;;8.06;100.00
72116;BME280;59991;52.140;5.428;2022-12-20T02:47:38;101236.19;;;8.04;100.00
72116;BME280;59991;52.140;5.428;2022-12-20T02:48:10;101232.34;;;8.05;100.00
72116;BME280;59991;52.140;5.428;2022-12-20T02:48:42;101238.91;;;8.04;100.00
72116;BME280;59991;52.140;5.428;2022-12-20T02:49:16;101238.91;;;8.04;100.00
72116;BME280;59991;52.140;5.428;2022-12-20T02:49:51;101235.06;;;8.05;100.00
72116;BME280;59991;52.140;5.428;2022-12-20T02:50:30;101239.69;;;8.05;100.00
72116;BME280;59991;52.140;5.428;2022-12-20T02:51:04;101237.00;;;8.05;100.00
72116;BME280;59991;52.140;5.428;2022-12-20T02:51:37;101233.47;;;8.04;100.00
72116;BME280;59991;52.140;5.428;2022-12-20T02:52:11;101234.28;;;8.05;100.00
72116;BME280;59991;52.140;5.428;2022-12-20T02:52:44;101236.19;;;8.04;100.00
72116;BME280;59991;52.140;5.428;2022-12-20T02:53:16;101229.19;;;8.03;100.00
72116;BME280;59991;52.140;5.428;2022-12-20T02:53:49;101231.91;;;8.03;100.00
72116;BME280;59991;52.140;5.428;2022-12-20T02:54:21;101228.75;;;8.01;100.00
72116;BME280;59991;52.140;5.428;2022-12-20T02:54:53;101232.69;;;8.04;100.00
72116;BME280;59991;52.140;5.428;2022-12-20T02:55:51;101239.69;;;8.05;100.00
72116;BME280;59991;52.140;5.428;2022-12-20T02:56:27;101237.34;;;8.03;100.00
72116;BME280;59991;52.140;5.428;2022-12-20T02:57:24;101226.81;;;8.02;100.00
72116;BME280;59991;52.140;5.428;2022-12-20T02:58:02;101233.47;;;8.04;100.00
72116;BME280;59991;52.140;5.428;2022-12-20T03:00:15;101233.94;;;8.06;100.00
72116;BME280;59991;52.140;5.428;2022-12-20T03:00:48;101232.34;;;8.05;100.00
72116;BME280;59991;52.140;5.428;2022-12-20T03:01:27;101224.91;;;8.02;100.00
72116;BME280;59991;52.140;5.428;2022-12-20T03:02:01;101222.19;;;8.02;100.00
72116;BME280;59991;52.140;5.428;2022-12-20T03:02:33;101222.97;;;8.03;100.00
72116;BME280;59991;52.140;5.428;2022-12-20T03:03:25;101223.31;;;8.01;100.00
72116;BME280;59991;52.140;5.428;2022-12-20T03:03:57;101226.81;;;8.02;100.00
72116;BME280;59991;52.140;5.428;2022-12-20T03:04:33;101215.97;;;8.02;100.00
72116;BME280;59991;52.140;5.428;2022-12-20T03:05:07;101222.19;;;8.02;100.00
72116;BME280;59991;52.140;5.428;2022-12-20T03:05:44;101224.44;;;8.00;100.00
72116;BME280;59991;52.140;5.428;2022-12-20T03:06:16;101228.41;;;8.03;100.00
72116;BME280;59991;52.140;5.428;2022-12-20T03:07:13;101238.13;;;8.04;100.00
72116;BME280;59991;52.140;5.428;2022-12-20T03:07:45;101236.53;;;8.03;100.00
72116;BME280;59991;52.140;5.428;2022-12-20T03:08:16;101232.69;;;8.04;100.00
72116;BME280;59991;52.140;5.428;2022-12-20T03:08:48;101227.97;;;8.01;100.00
72116;BME280;59991;52.140;5.428;2022-12-20T03:09:20;101237.69;;;8.02;100.00
72116;BME280;59991;52.140;5.428;2022-12-20T03:09:51;101235.75;;;8.02;100.00
72116;BME280;59991;52.140;5.428;2022-12-20T03:10:23;101241.53;;;8.01;100.00
72116;BME280;59991;52.140;5.428;2022-12-20T03:10:54;101223.31;;;8.01;100.00
72116;BME280;59991;52.140;5.428;2022-12-20T03:11:26;101224.44;;;8.00;100.00
72116;BME280;59991;52.140;5.428;2022-12-20T03:11:58;101213.94;;;7.98;100.00